createdAt,value
2023-01-09T00:01:27.966Z,23.10
2023-01-09T00:03:54.820Z,22.77
2023-01-09T00:06:21.769Z,24.52
2023-01-09T00:08:48.601Z,23.75
2023-01-09T00:11:15.526Z,23.58
2023-01-09T00:13:42.407Z,26.38
2023-01-09T00:16:10.269Z,23.80
2023-01-09T00:18:37.522Z,25.25
2023-01-09T00:21:08.756Z,26.00
2023-01-09T00:23:36.091Z,26.08
2023-01-09T00:26:05.782Z,27.88
2023-01-09T00:28:34.256Z,25.87
2023-01-09T00:31:02.941Z,24.88
2023-01-09T00:33:45.656Z,25.23
2023-01-09T00:36:13.320Z,25.25
2023-01-09T00:38:40.578Z,26.75
2023-01-09T00:41:12.809Z,26.53
2023-01-09T00:43:45.663Z,28.30
2023-01-09T00:46:13.953Z,28.63
2023-01-09T00:48:42.569Z,26.67
2023-01-09T00:51:09.483Z,31.95
2023-01-09T00:53:39.936Z,27.77
2023-01-09T00:56:11.448Z,28.02
2023-01-09T00:58:38.458Z,26.30
2023-01-09T01:01:05.694Z,26.88
2023-01-09T01:03:32.769Z,28.75
2023-01-09T01:05:59.583Z,28.50
2023-01-09T01:08:26.601Z,27.02
2023-01-09T01:10:53.445Z,26.98
2023-01-09T01:13:20.508Z,28.33
2023-01-09T01:15:47.393Z,32.63
2023-01-09T01:18:14.918Z,30.90
2023-01-09T01:20:44.311Z,30.55
2023-01-09T01:23:11.357Z,31.85
2023-01-09T01:25:39.836Z,28.60
2023-01-09T01:28:08.294Z,29.50
2023-01-09T01:30:40.330Z,34.53
2023-01-09T01:33:08.118Z,31.00
2023-01-09T01:35:35.479Z,30.95
2023-01-09T01:38:02.576Z,31.95
2023-01-09T01:40:29.880Z,30.80
2023-01-09T01:42:57.700Z,30.67
2023-01-09T01:45:29.777Z,32.50
2023-01-09T01:48:05.736Z,31.60
2023-01-09T01:50:55.927Z,34.55
2023-01-09T01:53:40.058Z,35.28
2023-01-09T01:56:18.266Z,31.97
2023-01-09T01:58:50.205Z,37.17
2023-01-09T02:01:19.342Z,38.08
2023-01-09T02:03:46.976Z,35.83
2023-01-09T02:06:14.105Z,33.78
2023-01-09T02:08:41.167Z,37.17
2023-01-09T02:11:08.102Z,35.13
2023-01-09T02:13:38.195Z,36.97
2023-01-09T02:16:17.501Z,34.53
2023-01-09T02:18:54.460Z,33.28
2023-01-09T02:21:30.318Z,39.30
2023-01-09T02:24:00.200Z,35.58
2023-01-09T02:27:05.252Z,36.22
2023-01-09T02:30:01.654Z,31.00
2023-01-09T02:33:02.030Z,32.97
2023-01-09T02:35:41.879Z,34.53
2023-01-09T02:38:35.529Z,31.05
2023-01-09T02:41:12.582Z,30.70
2023-01-09T02:43:39.590Z,34.88
2023-01-09T02:46:06.465Z,34.80
2023-01-09T02:48:33.496Z,33.17
2023-01-09T02:52:01.984Z,35.25
2023-01-09T02:54:34.762Z,40.00
2023-01-09T02:57:22.153Z,33.35
2023-01-09T03:00:15.768Z,34.67
2023-01-09T03:03:04.555Z,32.73
2023-01-09T03:05:41.330Z,34.42
2023-01-09T03:08:15.767Z,32.72
2023-01-09T03:11:00.861Z,30.35
2023-01-09T03:13:32.650Z,31.88
2023-01-09T03:16:03.014Z,33.90
2023-01-09T03:18:32.896Z,35.28
2023-01-09T03:21:00.821Z,31.95
2023-01-09T03:23:28.186Z,30.52
2023-01-09T03:25:54.937Z,29.70
2023-01-09T03:28:30.766Z,31.80
2023-01-09T03:30:57.823Z,34.83
2023-01-09T03:33:24.696Z,30.38
2023-01-09T03:36:17.808Z,32.17
2023-01-09T03:38:46.424Z,31.60
2023-01-09T03:41:13.186Z,27.40
2023-01-09T03:43:41.895Z,29.05
2023-01-09T03:46:09.436Z,26.45
2023-01-09T03:48:36.880Z,27.65
2023-01-09T03:51:03.758Z,26.55
2023-01-09T03:53:31.971Z,27.87
2023-01-09T03:55:58.711Z,29.15
2023-01-09T03:58:27.060Z,28.00
2023-01-09T04:01:03.096Z,29.70
2023-01-09T04:03:30.277Z,26.10
2023-01-09T04:05:57.258Z,27.37
2023-01-09T04:08:24.156Z,31.77
2023-01-09T04:10:52.200Z,31.45
2023-01-09T04:13:19.693Z,30.00
2023-01-09T04:15:46.449Z,27.00
2023-01-09T04:18:13.331Z,26.43
2023-01-09T04:20:40.429Z,29.33
2023-01-09T04:23:08.279Z,30.77
2023-01-09T04:25:35.302Z,30.30
2023-01-09T04:28:02.133Z,24.77
2023-01-09T04:30:29.166Z,28.97
2023-01-09T04:32:56.090Z,27.80
2023-01-09T04:35:23.878Z,28.42
2023-01-09T04:37:50.726Z,27.50
2023-01-09T04:40:17.572Z,26.17
2023-01-09T04:42:44.554Z,30.23
2023-01-09T04:45:12.245Z,25.35
2023-01-09T04:48:06.186Z,23.42
2023-01-09T04:50:34.815Z,25.42
2023-01-09T04:53:02.372Z,23.77
2023-01-09T04:55:29.730Z,24.90
2023-01-09T04:57:56.595Z,24.38
2023-01-09T05:00:24.411Z,20.75
2023-01-09T05:02:52.823Z,21.25
2023-01-09T05:05:19.871Z,21.27
2023-01-09T05:07:46.803Z,22.77
2023-01-09T05:10:13.664Z,22.83
2023-01-09T05:12:40.529Z,21.70
2023-01-09T05:15:09.086Z,21.58
2023-01-09T05:17:37.291Z,20.63
2023-01-09T05:20:05.298Z,21.70
2023-01-09T05:22:32.124Z,20.15
2023-01-09T05:25:00.435Z,20.48
2023-01-09T05:27:27.584Z,19.90
2023-01-09T05:29:54.406Z,17.05
2023-01-09T05:32:21.277Z,20.87
2023-01-09T05:34:48.062Z,22.10
2023-01-09T05:37:14.852Z,17.55
2023-01-09T05:39:41.805Z,12.65
2023-01-09T05:42:08.698Z,12.55
2023-01-09T05:44:35.712Z,13.60
2023-01-09T05:47:03.263Z,12.88
2023-01-09T05:49:31.738Z,15.27
2023-01-09T05:51:59.356Z,12.75
2023-01-09T05:54:27.697Z,16.08
2023-01-09T05:56:54.472Z,12.47
2023-01-09T05:59:21.449Z,14.90
2023-01-09T06:01:48.310Z,12.07
2023-01-09T06:04:15.191Z,12.23
2023-01-09T06:06:42.083Z,10.43
2023-01-09T06:09:08.931Z,10.37
2023-01-09T06:11:36.124Z,9.93
2023-01-09T06:14:05.553Z,9.77
2023-01-09T06:16:32.384Z,9.05
2023-01-09T06:18:59.892Z,9.07
2023-01-09T06:21:26.637Z,8.30
2023-01-09T06:23:53.756Z,11.80
2023-01-09T06:26:20.627Z,7.90
2023-01-09T06:28:50.890Z,8.07
2023-01-09T06:31:17.787Z,8.98
2023-01-09T06:33:44.782Z,8.10
2023-01-09T06:36:11.502Z,6.82
2023-01-09T06:38:38.276Z,7.68
2023-01-09T06:41:05.377Z,6.15
2023-01-09T06:43:32.168Z,5.75
2023-01-09T06:45:59.055Z,6.80
2023-01-09T06:48:25.907Z,5.00
2023-01-09T06:50:53.603Z,11.02
2023-01-09T06:53:21.037Z,7.38
2023-01-09T06:55:48.030Z,5.35
2023-01-09T06:58:14.819Z,4.97
2023-01-09T07:00:41.670Z,5.47
2023-01-09T07:03:08.488Z,4.97
2023-01-09T07:05:41.141Z,16.85
2023-01-09T07:08:09.254Z,4.55
2023-01-09T07:10:36.092Z,4.93
2023-01-09T07:13:02.903Z,6.68
2023-01-09T07:15:29.725Z,4.53
2023-01-09T07:17:56.620Z,4.40
2023-01-09T07:20:23.371Z,3.83
2023-01-09T07:22:50.435Z,3.90
2023-01-09T07:25:17.260Z,3.00
2023-01-09T07:27:44.107Z,3.70
2023-01-09T07:30:11.694Z,3.83
2023-01-09T07:32:38.603Z,3.25
2023-01-09T07:35:05.928Z,5.60
2023-01-09T07:37:32.847Z,4.70
2023-01-09T07:40:00.036Z,3.65
2023-01-09T07:42:27.205Z,3.60
2023-01-09T07:44:54.125Z,4.65
2023-01-09T07:47:20.978Z,4.23
2023-01-09T07:49:48.208Z,3.60
2023-01-09T07:52:15.350Z,4.53
2023-01-09T07:54:42.083Z,8.10
2023-01-09T07:57:09.061Z,9.13
2023-01-09T07:59:35.810Z,8.87
2023-01-09T08:02:03.068Z,8.32
2023-01-09T08:04:30.131Z,9.57
2023-01-09T08:06:58.247Z,8.82
2023-01-09T08:09:25.264Z,11.02
2023-01-09T08:11:52.072Z,10.10
2023-01-09T08:14:19.270Z,10.88
2023-01-09T08:16:46.075Z,10.93
2023-01-09T08:19:16.205Z,10.80
2023-01-09T08:21:43.077Z,10.82
2023-01-09T08:24:10.531Z,10.37
2023-01-09T08:26:37.317Z,10.18
2023-01-09T08:29:04.158Z,10.43
2023-01-09T08:31:30.992Z,10.07
2023-01-09T08:33:57.832Z,11.55
2023-01-09T08:36:25.394Z,11.13
2023-01-09T08:38:52.670Z,11.70
2023-01-09T08:41:19.751Z,11.40
2023-01-09T08:43:46.699Z,10.55
2023-01-09T08:46:21.233Z,10.93
2023-01-09T08:48:48.325Z,10.50
2023-01-09T08:51:15.128Z,11.45
2023-01-09T08:53:42.821Z,12.60
2023-01-09T08:56:09.590Z,13.18
2023-01-09T08:58:41.464Z,13.82
2023-01-09T09:01:12.332Z,14.50
2023-01-09T09:03:39.780Z,18.90
2023-01-09T09:06:09.323Z,18.10
2023-01-09T09:08:36.901Z,16.83
2023-01-09T09:11:03.605Z,17.95
2023-01-09T09:13:31.769Z,17.60
2023-01-09T09:15:59.308Z,15.95
2023-01-09T09:18:27.909Z,16.13
2023-01-09T09:20:55.387Z,16.83
2023-01-09T09:23:22.168Z,16.60
2023-01-09T09:25:49.685Z,14.33
2023-01-09T09:28:18.414Z,10.73
2023-01-09T09:30:45.266Z,6.65
2023-01-09T09:33:12.702Z,4.93
2023-01-09T09:35:40.288Z,5.53
2023-01-09T09:38:08.779Z,5.50
2023-01-09T09:40:47.352Z,5.20
2023-01-09T09:43:35.683Z,2.75
2023-01-09T09:46:22.614Z,3.15
2023-01-09T09:48:58.119Z,4.65
2023-01-09T09:52:01.246Z,3.40
2023-01-09T09:54:38.992Z,3.83
2023-01-09T09:57:11.810Z,2.92
2023-01-09T09:59:41.811Z,3.20
2023-01-09T10:02:43.314Z,9.77
2023-01-09T10:05:29.469Z,2.50
2023-01-09T10:08:11.696Z,2.67
2023-01-09T10:10:53.669Z,2.25
2023-01-09T10:13:24.296Z,2.67
2023-01-09T10:16:07.453Z,3.25
2023-01-09T10:18:51.249Z,3.10
2023-01-09T10:21:44.727Z,1.70
2023-01-09T10:24:26.888Z,2.20
2023-01-09T10:26:53.857Z,2.75
2023-01-09T10:29:41.452Z,1.90
2023-01-09T10:32:17.894Z,1.50
2023-01-09T10:34:56.676Z,2.03
2023-01-09T10:37:29.330Z,1.15
2023-01-09T10:40:16.561Z,1.00
2023-01-09T10:42:50.586Z,1.10
2023-01-09T10:45:26.479Z,1.83
2023-01-09T10:48:01.764Z,1.25
2023-01-09T10:50:35.274Z,0.73
2023-01-09T10:53:20.863Z,1.13
2023-01-09T10:55:51.696Z,0.30
2023-01-09T10:58:21.247Z,0.57
2023-01-09T11:00:50.416Z,0.30
2023-01-09T11:03:21.661Z,0.20
2023-01-09T11:05:53.073Z,0.82
2023-01-09T11:08:31.586Z,0.20
2023-01-09T11:11:03.390Z,0.50
2023-01-09T11:13:35.817Z,0.70
2023-01-09T11:19:15.329Z,0.20
2023-01-09T11:21:42.166Z,0.30
2023-01-09T11:24:21.244Z,0.57
2023-01-09T11:26:55.071Z,0.57
2023-01-09T11:29:23.832Z,0.63
2023-01-09T11:32:01.568Z,0.80
2023-01-09T11:34:34.226Z,0.25
2023-01-09T11:37:07.756Z,0.20
2023-01-09T11:39:37.243Z,0.65
2023-01-09T11:42:07.210Z,0.20
2023-01-09T11:44:35.196Z,0.50
2023-01-09T11:47:26.116Z,0.70
2023-01-09T11:50:12.345Z,0.93
2023-01-09T11:52:40.987Z,0.25
2023-01-09T11:55:14.295Z,0.20
2023-01-09T11:57:41.269Z,0.77
2023-01-09T12:00:27.428Z,1.08
2023-01-09T12:03:27.065Z,0.77
2023-01-09T12:06:35.267Z,0.38
2023-01-09T12:09:16.139Z,0.60
2023-01-09T12:12:03.436Z,0.45
2023-01-09T12:15:05.200Z,0.60
2023-01-09T12:17:41.552Z,0.40
2023-01-09T12:20:11.531Z,0.68
2023-01-09T12:22:50.349Z,0.65
2023-01-09T12:26:01.373Z,0.80
2023-01-09T12:29:00.355Z,0.30
2023-01-09T12:31:35.403Z,0.70
2023-01-09T12:34:20.398Z,0.20
2023-01-09T12:37:41.617Z,0.20
2023-01-09T12:40:11.759Z,0.10
2023-01-09T12:43:29.535Z,0.28
2023-01-09T12:46:18.084Z,0.47
2023-01-09T12:48:56.948Z,0.82
2023-01-09T12:51:45.273Z,0.17
2023-01-09T12:54:41.214Z,0.60
2023-01-09T12:57:23.764Z,1.00
2023-01-09T12:59:55.458Z,0.60
2023-01-09T13:02:32.625Z,0.68
2023-01-09T13:05:17.209Z,0.70
2023-01-09T13:07:56.648Z,0.57
2023-01-09T13:10:37.052Z,0.60
2023-01-09T13:13:15.411Z,1.20
2023-01-09T13:15:47.615Z,1.45
2023-01-09T13:18:24.461Z,1.05
2023-01-09T13:20:54.365Z,1.30
2023-01-09T13:23:30.327Z,0.68
2023-01-09T13:26:07.905Z,1.20
2023-01-09T13:28:42.443Z,0.85
2023-01-09T13:31:34.040Z,2.55
2023-01-09T13:34:02.918Z,1.40
2023-01-09T13:36:34.047Z,0.98
2023-01-09T13:39:01.794Z,1.40
2023-01-09T13:41:30.022Z,2.50
2023-01-09T13:44:02.996Z,1.00
2023-01-09T13:46:40.327Z,1.85
2023-01-09T13:49:27.088Z,1.83
2023-01-09T13:52:31.140Z,1.88
2023-01-09T13:54:57.879Z,2.03
2023-01-09T13:57:32.845Z,1.37
2023-01-09T14:00:19.516Z,1.00
2023-01-09T14:02:46.277Z,2.28
2023-01-09T14:05:14.570Z,2.22
2023-01-09T14:07:50.635Z,3.08
2023-01-09T14:10:24.595Z,2.20
2023-01-09T14:12:55.089Z,1.42
2023-01-09T14:15:36.380Z,2.67
2023-01-09T14:18:06.887Z,2.78
2023-01-09T14:20:47.846Z,1.40
2023-01-09T14:23:42.210Z,2.23
2023-01-09T14:26:39.232Z,2.15
2023-01-09T14:29:41.301Z,1.90
2023-01-09T14:32:23.482Z,1.55
2023-01-09T14:34:56.611Z,2.25
2023-01-09T14:37:24.565Z,1.20
2023-01-09T14:39:52.107Z,2.03
2023-01-09T14:42:24.226Z,4.50
2023-01-09T14:44:58.627Z,1.90
2023-01-09T14:47:31.490Z,2.38
2023-01-09T14:50:00.945Z,2.27
2023-01-09T14:52:35.386Z,1.95
2023-01-09T14:55:06.531Z,1.52
2023-01-09T14:57:36.408Z,1.40
2023-01-09T15:00:15.436Z,1.25
2023-01-09T15:02:43.766Z,1.47
2023-01-09T15:05:19.620Z,1.05
2023-01-09T15:07:54.410Z,1.65
2023-01-09T15:10:25.102Z,2.00
2023-01-09T15:12:56.065Z,1.85
2023-01-09T15:15:23.687Z,1.33
2023-01-09T15:17:56.578Z,2.00
2023-01-09T15:20:27.134Z,1.80
2023-01-09T15:22:54.841Z,2.78
2023-01-09T15:25:38.477Z,1.83
2023-01-09T15:28:29.402Z,2.47
2023-01-09T15:31:05.284Z,1.35
2023-01-09T15:33:33.804Z,0.93
2023-01-09T15:36:07.465Z,1.60
2023-01-09T15:38:34.528Z,1.88
2023-01-09T15:41:08.790Z,0.90
2023-01-09T15:43:39.724Z,1.20
2023-01-09T15:46:07.036Z,1.10
2023-01-09T15:48:35.740Z,3.13
2023-01-09T15:51:13.553Z,2.25
2023-01-09T15:53:42.196Z,3.17
2023-01-09T15:56:21.160Z,2.88
2023-01-09T15:58:49.940Z,0.70
2023-01-09T16:01:25.526Z,1.80
2023-01-09T16:03:56.182Z,0.68
2023-01-09T16:06:30.691Z,1.70
2023-01-09T16:09:01.781Z,1.67
2023-01-09T16:11:33.717Z,1.42
2023-01-09T16:14:22.670Z,1.30
2023-01-09T16:16:51.979Z,2.08
2023-01-09T16:19:49.374Z,2.07
2023-01-09T16:22:32.474Z,1.88
2023-01-09T16:25:01.992Z,1.73
2023-01-09T16:27:30.983Z,2.30
2023-01-09T16:30:06.281Z,1.48
2023-01-09T16:32:36.063Z,1.13
2023-01-09T16:35:06.396Z,2.05
2023-01-09T16:37:34.667Z,1.38
2023-01-09T16:40:16.432Z,2.83
2023-01-09T16:42:45.993Z,1.08
2023-01-09T16:45:12.864Z,2.17
2023-01-09T16:47:39.879Z,1.50
2023-01-09T16:50:11.321Z,2.40
2023-01-09T16:52:38.464Z,2.00
2023-01-09T16:55:06.251Z,1.73
2023-01-09T16:57:34.696Z,1.90
2023-01-09T17:00:02.030Z,1.35
2023-01-09T17:02:29.454Z,1.27
2023-01-09T17:04:56.229Z,2.55
2023-01-09T17:07:24.033Z,1.77
2023-01-09T17:09:51.216Z,2.50
2023-01-09T17:12:20.525Z,5.10
2023-01-09T17:14:49.179Z,1.40
2023-01-09T17:17:17.452Z,1.27
2023-01-09T17:19:44.435Z,2.42
2023-01-09T17:22:11.336Z,1.67
2023-01-09T17:24:38.238Z,1.60
2023-01-09T17:27:05.362Z,2.00
2023-01-09T17:29:34.198Z,6.15
2023-01-09T17:32:01.265Z,3.00
2023-01-09T17:34:28.214Z,1.93
2023-01-09T17:36:55.504Z,3.00
2023-01-09T17:39:23.355Z,2.95
2023-01-09T17:41:50.319Z,2.22
2023-01-09T17:44:17.173Z,2.08
2023-01-09T17:46:44.968Z,2.13
2023-01-09T17:49:20.230Z,2.47
2023-01-09T17:51:47.278Z,1.55
2023-01-09T17:54:14.111Z,2.17
2023-01-09T17:56:45.368Z,1.48
2023-01-09T17:59:14.229Z,1.27
2023-01-09T18:01:42.189Z,2.25
2023-01-09T18:04:09.766Z,1.25
2023-01-09T18:06:36.743Z,1.27
2023-01-09T18:09:07.800Z,1.58
2023-01-09T18:11:34.943Z,3.40
2023-01-09T18:14:02.032Z,2.28
2023-01-09T18:16:29.201Z,2.00
2023-01-09T18:18:58.236Z,2.80
2023-01-09T18:21:27.167Z,3.17
2023-01-09T18:23:55.416Z,2.90
2023-01-09T18:26:23.472Z,2.58
2023-01-09T18:28:54.467Z,3.88
2023-01-09T18:31:22.504Z,1.98
2023-01-09T18:33:51.333Z,1.88
2023-01-09T18:36:22.689Z,2.93
2023-01-09T18:38:51.841Z,2.60
2023-01-09T18:41:19.406Z,2.28
2023-01-09T18:43:55.139Z,2.20
2023-01-09T18:46:22.746Z,2.22
2023-01-09T18:49:01.129Z,2.73
2023-01-09T18:51:33.797Z,2.08
2023-01-09T18:54:01.589Z,2.05
2023-01-09T18:56:29.373Z,1.92
2023-01-09T18:58:57.584Z,3.30
2023-01-09T19:01:25.950Z,1.03
2023-01-09T19:03:53.651Z,2.60
2023-01-09T19:06:23.417Z,2.47
2023-01-09T19:08:51.563Z,1.55
2023-01-09T19:11:19.401Z,1.83
2023-01-09T19:13:47.959Z,1.77
2023-01-09T19:16:15.754Z,1.58
2023-01-09T19:18:43.311Z,1.52
2023-01-09T19:21:17.190Z,1.83
2023-01-09T19:23:45.818Z,3.60
2023-01-09T19:26:18.609Z,2.17
2023-01-09T19:28:47.051Z,2.38
2023-01-09T19:31:16.883Z,1.63
2023-01-09T19:33:45.145Z,3.55
2023-01-09T19:36:12.379Z,2.15
2023-01-09T19:38:39.254Z,2.73
2023-01-09T19:41:11.679Z,4.57
2023-01-09T19:43:41.310Z,5.18
2023-01-09T19:46:12.189Z,3.88
2023-01-09T19:48:39.322Z,2.33
2023-01-09T19:51:07.559Z,3.77
2023-01-09T19:53:35.595Z,1.73
2023-01-09T19:56:13.909Z,4.22
2023-01-09T19:58:42.393Z,3.00
2023-01-09T20:01:14.671Z,3.13
2023-01-09T20:03:46.024Z,2.43
2023-01-09T20:06:16.026Z,2.47
2023-01-09T20:08:45.994Z,2.30
2023-01-09T20:11:13.556Z,4.63
2023-01-09T20:13:42.145Z,2.05
2023-01-09T20:16:14.677Z,2.03
2023-01-09T20:18:42.017Z,2.40
2023-01-09T20:21:09.237Z,2.42
2023-01-09T20:23:36.602Z,2.90
2023-01-09T20:26:04.273Z,2.13
2023-01-09T20:28:31.435Z,2.87
2023-01-09T20:30:58.918Z,2.67
2023-01-09T20:33:26.403Z,3.38
2023-01-09T20:35:53.815Z,1.35
2023-01-09T20:38:21.069Z,2.88
2023-01-09T20:40:47.812Z,2.90
2023-01-09T20:43:14.698Z,3.00
2023-01-09T20:45:41.796Z,3.33
2023-01-09T20:48:08.793Z,2.45
2023-01-09T20:50:35.696Z,2.72
2023-01-09T20:53:04.398Z,2.40
2023-01-09T20:55:32.309Z,3.47
2023-01-09T20:57:59.444Z,1.38
2023-01-09T21:00:26.323Z,2.95
2023-01-09T21:02:53.945Z,2.53
2023-01-09T21:05:20.895Z,1.53
2023-01-09T21:07:48.105Z,2.53
2023-01-09T21:10:15.046Z,2.95
2023-01-09T21:12:41.919Z,3.25
2023-01-09T21:15:10.435Z,2.08
2023-01-09T21:17:39.219Z,1.10
2023-01-09T21:20:10.668Z,2.45
2023-01-09T21:22:37.769Z,1.85
2023-01-09T21:25:05.919Z,1.88
2023-01-09T21:27:32.704Z,2.20
2023-01-09T21:29:59.429Z,1.67
2023-01-09T21:32:26.326Z,2.83
2023-01-09T21:34:53.127Z,1.45
2023-01-09T21:37:19.870Z,3.38
2023-01-09T21:39:46.732Z,1.23
2023-01-09T21:42:13.532Z,2.73
2023-01-09T21:44:41.441Z,2.42
2023-01-09T21:47:09.656Z,2.35
2023-01-09T21:49:40.852Z,3.97
2023-01-09T21:52:09.092Z,3.58
2023-01-09T21:54:36.040Z,2.47
2023-01-09T21:57:02.957Z,2.40
2023-01-09T21:59:29.821Z,1.70
2023-01-09T22:01:56.716Z,1.40
2023-01-09T22:04:26.809Z,3.15
2023-01-09T22:06:54.445Z,3.73
2023-01-09T22:09:21.326Z,2.28
2023-01-09T22:11:48.370Z,1.92
2023-01-09T22:14:18.436Z,2.42
2023-01-09T22:16:46.682Z,3.55
2023-01-09T22:19:14.989Z,2.13
2023-01-09T22:21:41.894Z,4.28
2023-01-09T22:24:12.832Z,1.88
2023-01-09T22:26:40.151Z,1.42
2023-01-09T22:29:06.993Z,2.67
2023-01-09T22:31:33.909Z,1.63
2023-01-09T22:34:02.187Z,4.10
2023-01-09T22:36:30.297Z,3.78
2023-01-09T22:38:58.973Z,3.00
2023-01-09T22:41:27.348Z,2.20
2023-01-09T22:43:54.117Z,2.03
2023-01-09T22:46:21.089Z,2.38
2023-01-09T22:48:47.996Z,3.00
2023-01-09T22:51:17.369Z,3.97
2023-01-09T22:53:44.901Z,4.03
2023-01-09T22:56:21.436Z,3.37
2023-01-09T22:58:53.049Z,2.80
2023-01-09T23:01:20.882Z,2.30
2023-01-09T23:03:48.193Z,2.45
2023-01-09T23:06:17.801Z,3.25
2023-01-09T23:08:45.382Z,2.20
2023-01-09T23:11:16.331Z,3.03
2023-01-09T23:13:43.142Z,2.45
2023-01-09T23:16:10.031Z,1.25
2023-01-09T23:18:36.832Z,2.60
2023-01-09T23:21:04.903Z,3.10
2023-01-09T23:23:33.094Z,2.03
2023-01-09T23:26:03.333Z,2.53
2023-01-09T23:28:30.351Z,2.13
2023-01-09T23:30:57.330Z,2.63
2023-01-09T23:33:24.160Z,3.37
2023-01-09T23:35:51.123Z,2.72
2023-01-09T23:38:17.947Z,2.47
2023-01-09T23:40:44.813Z,3.78
2023-01-09T23:43:13.737Z,2.80
2023-01-09T23:45:43.653Z,3.03
2023-01-09T23:48:14.849Z,3.80
2023-01-09T23:50:51.238Z,3.03
2023-01-09T23:53:21.261Z,2.40
2023-01-09T23:55:49.227Z,3.45
2023-01-09T23:58:16.014Z,4.33
